Time;durP1;ratioP1;P1;durP2;ratioP2;P2;SDS_P1;SDS_P2;PMS_P1;PMS_P2;Temp;Humidity;BMP_temperature;BMP_pressure;BME280_temperature;BME280_humidity;BME280_pressure;Samples;Min_cycle;Max_cycle;Signal;HPM_P1;HPM_P2
2022/11/11 00:02:02;;;;;;;19.83;7.53;;;;;;;8.26;100.00;102650.94;5111691;28;20139;-54
2022/11/11 00:04:30;;;;;;;16.73;7.13;;;;;;;8.29;100.00;102650.00;5110964;28;20056;-54
2022/11/11 00:06:58;;;;;;;15.75;6.72;;;;;;;8.28;100.00;102658.75;5111991;28;20028;-53
2022/11/11 00:09:28;;;;;;;15.82;6.85;;;;;;;8.26;100.00;102664.03;5112165;28;20101;-53
2022/11/11 00:11:56;;;;;;;16.48;7.28;;;;;;;8.24;100.00;102663.19;5112063;28;20051;-53
2022/11/11 00:14:24;;;;;;;14.88;7.07;;;;;;;8.21;100.00;102673.78;5112657;28;20067;-51
2022/11/11 00:25:13;;;;;;;13.48;7.20;;;;;;;8.18;100.00;102680.84;5115673;28;20048;-53
2022/11/11 00:27:41;;;;;;;12.70;7.13;;;;;;;8.22;100.00;102686.00;5115608;28;20073;-53
2022/11/11 00:30:11;;;;;;;17.63;7.32;;;;;;;8.17;100.00;102687.84;5113462;28;20048;-54
2022/11/11 00:32:40;;;;;;;14.43;7.07;;;;;;;8.15;100.00;102689.66;5111751;28;20039;-53
2022/11/11 00:37:54;;;;;;;13.70;7.18;;;;;;;8.14;100.00;102695.81;5112600;28;20050;-52
2022/11/11 00:40:23;;;;;;;14.43;7.32;;;;;;;8.16;100.00;102701.84;5111618;28;20502;-49
2022/11/11 00:42:51;;;;;;;14.57;7.43;;;;;;;8.17;100.00;102702.75;5114327;28;20394;-50
2022/11/11 00:45:20;;;;;;;16.48;8.25;;;;;;;8.20;100.00;102707.91;5115714;28;20048;-51
2022/11/11 00:53:21;;;;;;;15.18;7.85;;;;;;;8.31;100.00;102691.88;5115666;28;20054;-49
2022/11/11 00:55:56;;;;;;;16.48;8.93;;;;;;;8.36;100.00;102690.00;5115474;27;20444;-52
2022/11/11 00:58:27;;;;;;;17.10;9.27;;;;;;;8.38;100.00;102681.19;5115488;28;20052;-49
2022/11/11 01:00:55;;;;;;;18.25;9.48;;;;;;;8.41;100.00;102698.59;5115191;28;20058;-50
2022/11/11 01:03:23;;;;;;;15.52;9.52;;;;;;;8.46;100.00;102692.34;5113941;28;20081;-48
2022/11/11 01:05:51;;;;;;;15.50;9.63;;;;;;;8.50;100.00;102687.06;5115240;28;20039;-49
2022/11/11 01:08:20;;;;;;;19.80;10.63;;;;;;;8.51;100.00;102701.84;5114748;27;20043;-52
2022/11/11 01:10:48;;;;;;;17.48;10.00;;;;;;;8.57;100.00;102697.31;5114298;28;20079;-51
2022/11/11 01:13:20;;;;;;;20.60;11.30;;;;;;;8.52;100.00;102699.22;5114520;28;20077;-48
2022/11/11 01:15:51;;;;;;;19.97;10.50;;;;;;;8.59;100.00;102692.91;5113858;28;20150;-50
2022/11/11 01:18:23;;;;;;;19.02;10.27;;;;;;;8.65;100.00;102688.41;5115236;28;20050;-47
2022/11/11 01:20:59;;;;;;;22.90;12.20;;;;;;;8.60;100.00;102680.63;5111670;28;20574;-49
2022/11/11 01:23:28;;;;;;;18.92;11.02;;;;;;;8.69;100.00;102680.38;5112009;28;20071;-49
2022/11/11 01:26:02;;;;;;;20.00;12.07;;;;;;;8.69;100.00;102675.13;5114265;28;20149;-53
2022/11/11 01:28:32;;;;;;;20.52;11.63;;;;;;;8.71;100.00;102673.34;5113621;28;20114;-51
2022/11/11 01:31:01;;;;;;;22.15;12.98;;;;;;;8.74;100.00;102677.63;5114629;28;20079;-51
2022/11/11 01:33:30;;;;;;;19.92;12.18;;;;;;;8.72;100.00;102669.78;5110867;28;20075;-51
2022/11/11 01:36:06;;;;;;;21.67;12.90;;;;;;;8.74;100.00;102678.50;5111133;28;20550;-54
2022/11/11 01:38:37;;;;;;;20.42;12.38;;;;;;;8.81;100.00;102673.94;5112348;27;20097;-54
2022/11/11 01:43:53;;;;;;;24.52;12.77;;;;;;;8.79;100.00;102675.75;5111111;28;20384;-53
2022/11/11 01:46:30;;;;;;;21.42;12.35;;;;;;;8.81;100.00;102679.19;5111261;27;20101;-53
2022/11/11 01:49:20;;;;;;;22.15;13.07;;;;;;;8.84;100.00;102686.13;5114159;28;20097;-53
2022/11/11 01:51:55;;;;;;;21.85;12.35;;;;;;;8.85;100.00;102675.56;5114089;28;20051;-54
2022/11/11 01:54:29;;;;;;;20.98;12.65;;;;;;;8.88;100.00;102672.00;5110041;28;20075;-54
2022/11/11 01:57:04;;;;;;;23.25;13.57;;;;;;;8.86;100.00;102677.31;5111936;28;20498;-54
2022/11/11 01:59:35;;;;;;;20.10;13.02;;;;;;;8.87;100.00;102676.38;5112420;28;20043;-54
2022/11/11 02:02:10;;;;;;;22.50;13.00;;;;;;;8.89;100.00;102665.84;5110322;27;20757;-54
2022/11/11 02:07:27;;;;;;;20.98;14.02;;;;;;;8.95;100.00;102674.38;5111470;28;20130;-52
2022/11/11 02:09:56;;;;;;;19.98;14.30;;;;;;;8.93;100.00;102673.59;5111294;28;20075;-51
2022/11/11 02:15:11;;;;;;;19.58;13.27;;;;;;;9.01;100.00;102680.38;5113465;28;20052;-50
2022/11/11 02:17:40;;;;;;;20.48;13.35;;;;;;;9.02;100.00;102672.44;5112897;27;20031;-53
2022/11/11 02:20:14;;;;;;;21.73;13.88;;;;;;;8.99;100.00;102661.19;5109980;28;20055;-53
2022/11/11 02:22:48;;;;;;;21.60;13.35;;;;;;;9.04;100.00;102657.53;5110527;28;20411;-52
2022/11/11 02:25:22;;;;;;;22.67;14.35;;;;;;;9.06;100.00;102668.81;5111928;28;20110;-54
2022/11/11 02:27:53;;;;;;;21.25;14.15;;;;;;;9.10;100.00;102666.97;5110209;28;20059;-53
2022/11/11 02:30:21;;;;;;;24.67;13.45;;;;;;;9.20;100.00;102668.41;5109406;28;20035;-53
2022/11/11 02:32:51;;;;;;;22.08;13.80;;;;;;;9.17;100.00;102662.41;5108987;28;20128;-54
2022/11/11 02:35:22;;;;;;;20.58;13.52;;;;;;;9.19;100.00;102657.94;5109689;28;20379;-52
2022/11/11 02:37:53;;;;;;;20.10;13.63;;;;;;;9.12;100.00;102658.16;5109918;28;20093;-53
2022/11/11 02:40:27;;;;;;;20.77;14.00;;;;;;;9.15;100.00;102657.22;5107459;28;20044;-52
2022/11/11 02:42:54;;;;;;;21.77;14.10;;;;;;;9.16;100.00;102669.41;5110449;28;20525;-48
2022/11/11 02:45:25;;;;;;;20.67;12.85;;;;;;;9.20;100.00;102676.28;5113482;28;20036;-47
2022/11/11 02:47:54;;;;;;;23.33;13.43;;;;;;;9.22;100.00;102676.25;5113364;28;20371;-47
2022/11/11 02:50:22;;;;;;;22.88;13.85;;;;;;;9.19;100.00;102673.72;5113104;28;20047;-49
2022/11/11 02:52:50;;;;;;;26.17;14.73;;;;;;;9.23;100.00;102670.97;5113538;28;20050;-52
2022/11/11 02:55:18;;;;;;;21.75;13.95;;;;;;;9.24;100.00;102677.06;5112871;28;20051;-51
2022/11/11 02:57:48;;;;;;;22.55;13.57;;;;;;;9.25;100.00;102681.41;5111859;28;20521;-53
2022/11/11 03:00:17;;;;;;;22.90;14.05;;;;;;;9.25;100.00;102673.53;5109693;28;20062;-50
2022/11/11 03:02:45;;;;;;;20.98;13.68;;;;;;;9.21;100.00;102677.16;5112619;28;20156;-51
2022/11/11 03:05:14;;;;;;;22.73;13.98;;;;;;;9.27;100.00;102680.47;5112770;28;20071;-50
2022/11/11 03:07:42;;;;;;;23.48;14.13;;;;;;;9.22;100.00;102678.88;5111167;28;20380;-47
2022/11/11 03:10:11;;;;;;;23.17;14.48;;;;;;;9.24;100.00;102680.56;5112662;28;20043;-52
2022/11/11 03:12:39;;;;;;;22.23;13.85;;;;;;;9.29;100.00;102675.16;5112464;28;20054;-50
2022/11/11 03:15:09;;;;;;;21.70;14.40;;;;;;;9.33;100.00;102670.69;5112539;28;20043;-53
2022/11/11 03:17:40;;;;;;;22.65;13.02;;;;;;;9.32;100.00;102667.19;5109299;28;20538;-50
2022/11/11 03:23:01;;;;;;;22.92;14.27;;;;;;;9.32;100.00;102668.97;5112653;28;20490;-52
2022/11/11 03:25:37;;;;;;;20.13;13.35;;;;;;;9.32;100.00;102674.22;5110357;28;20040;-50
2022/11/11 03:28:05;;;;;;;21.23;13.20;;;;;;;9.33;100.00;102679.41;5109609;28;20039;-52
2022/11/11 03:30:35;;;;;;;24.70;13.25;;;;;;;9.34;100.00;102675.00;5108570;28;20126;-52
2022/11/11 03:33:04;;;;;;;22.58;13.23;;;;;;;9.36;100.00;102681.09;5109285;28;20112;-49
2022/11/11 03:35:32;;;;;;;19.15;13.02;;;;;;;9.34;100.00;102678.50;5112134;28;20432;-52
2022/11/11 03:38:15;;;;;;;18.85;12.25;;;;;;;9.32;100.00;102677.69;5111685;28;20058;-50
2022/11/11 03:40:44;;;;;;;18.50;12.93;;;;;;;9.33;100.00;102682.03;5111825;28;20684;-49
2022/11/11 03:43:13;;;;;;;18.10;13.23;;;;;;;9.30;100.00;102688.22;5111745;28;20123;-49
2022/11/11 03:45:43;;;;;;;21.98;12.50;;;;;;;9.34;100.00;102688.13;5111901;28;20096;-48
2022/11/11 03:48:13;;;;;;;21.45;13.20;;;;;;;9.32;100.00;102679.47;5111907;28;20075;-53
2022/11/11 03:50:41;;;;;;;20.38;12.48;;;;;;;9.34;100.00;102678.50;5113989;28;20044;-52
2022/11/11 03:53:09;;;;;;;20.38;13.07;;;;;;;9.32;100.00;102675.06;5116124;28;20048;-51
2022/11/11 03:55:38;;;;;;;19.33;11.73;;;;;;;9.33;100.00;102687.28;5116357;28;20044;-51
2022/11/11 03:58:06;;;;;;;19.65;12.70;;;;;;;9.35;100.00;102679.34;5116234;27;20051;-52
2022/11/11 04:00:34;;;;;;;18.83;11.95;;;;;;;9.34;100.00;102686.38;5116067;28;20047;-48
2022/11/11 04:11:32;;;;;;;21.48;12.27;;;;;;;9.33;100.00;102681.19;5112611;27;20069;-49
2022/11/11 04:16:50;;;;;;;21.63;12.18;;;;;;;9.27;100.00;102683.09;5116046;28;20449;-53
2022/11/11 04:22:05;;;;;;;20.58;11.57;;;;;;;9.23;100.00;102685.84;5115787;28;20055;-50
2022/11/11 04:27:24;;;;;;;19.98;12.48;;;;;;;9.27;100.00;102700.59;5038726;28;20068;-52
2022/11/11 04:29:51;;;;;;;21.17;12.35;;;;;;;9.29;100.00;102702.25;5112428;28;20051;-50
2022/11/11 04:32:38;;;;;;;20.80;11.77;;;;;;;9.25;100.00;102707.66;5114964;28;20043;-48
2022/11/11 04:35:10;;;;;;;21.20;12.25;;;;;;;9.27;100.00;102714.59;5097316;28;20051;-50
2022/11/11 04:37:46;;;;;;;17.70;10.77;;;;;;;9.32;100.00;102708.34;5103791;27;20056;-52
2022/11/11 04:42:59;;;;;;;18.15;11.75;;;;;;;9.33;100.00;102702.19;5104593;28;20078;-47
2022/11/11 04:45:27;;;;;;;20.48;12.07;;;;;;;9.32;100.00;102703.09;5094861;28;20048;-48
2022/11/11 04:47:57;;;;;;;20.75;11.25;;;;;;;9.30;100.00;102698.75;5107033;28;20093;-48
2022/11/11 04:50:29;;;;;;;19.98;11.60;;;;;;;9.34;100.00;102701.25;5099285;28;20074;-52
2022/11/11 04:52:58;;;;;;;17.63;11.45;;;;;;;9.31;100.00;102702.22;5098455;28;20125;-52
2022/11/11 04:58:12;;;;;;;22.67;11.85;;;;;;;9.30;100.00;102693.50;5097181;28;20039;-49
2022/11/11 05:00:40;;;;;;;19.42;11.20;;;;;;;9.33;100.00;102696.94;5100195;28;20124;-49
2022/11/11 05:03:15;;;;;;;18.38;10.77;;;;;;;9.33;100.00;102700.41;5103976;28;20054;-52
2022/11/11 05:11:21;;;;;;;17.67;11.35;;;;;;;9.32;100.00;102696.06;5106034;28;20387;-51
2022/11/11 05:22:14;;;;;;;20.63;11.40;;;;;;;9.22;100.00;102687.59;5111168;28;20652;-52
2022/11/11 05:27:28;;;;;;;20.33;11.65;;;;;;;9.23;100.00;102696.34;5107709;28;20522;-53
2022/11/11 05:29:56;;;;;;;17.23;11.00;;;;;;;9.27;100.00;102688.34;5094702;28;20093;-52
2022/11/11 05:32:25;;;;;;;20.38;11.13;;;;;;;9.26;100.00;102688.38;5101643;28;20114;-55
2022/11/11 05:34:54;;;;;;;17.08;10.98;;;;;;;9.23;100.00;102685.84;5102491;28;20051;-54
2022/11/11 05:37:23;;;;;;;17.00;10.98;;;;;;;9.23;100.00;102691.97;5110251;28;20418;-56
2022/11/11 05:39:52;;;;;;;19.48;11.30;;;;;;;9.22;100.00;102689.38;5093678;28;20047;-56
2022/11/11 05:42:20;;;;;;;15.18;10.57;;;;;;;9.21;100.00;102695.53;5110433;28;20067;-55
2022/11/11 05:44:48;;;;;;;18.95;11.40;;;;;;;9.14;100.00;102686.97;5098499;28;20494;-56
2022/11/11 05:47:16;;;;;;;17.50;11.75;;;;;;;9.18;100.00;102688.59;5105448;28;20104;-56
2022/11/11 05:49:44;;;;;;;20.50;11.98;;;;;;;9.14;100.00;102687.81;5093151;28;20043;-55
2022/11/11 05:52:15;;;;;;;18.77;11.00;;;;;;;9.14;100.00;102676.47;5103171;28;20052;-55
2022/11/11 05:54:45;;;;;;;16.88;11.43;;;;;;;9.12;100.00;102683.53;5100509;28;20039;-55
2022/11/11 05:57:13;;;;;;;18.15;10.75;;;;;;;9.14;100.00;102686.97;5094945;28;20043;-55
2022/11/11 05:59:42;;;;;;;21.55;10.82;;;;;;;9.16;100.00;102677.28;5106616;28;20043;-56
2022/11/11 06:02:11;;;;;;;18.42;11.55;;;;;;;9.17;100.00;102684.25;5095365;28;20047;-53
2022/11/11 06:04:39;;;;;;;20.80;11.52;;;;;;;9.13;100.00;102683.50;5099496;28;20097;-55
2022/11/11 06:07:07;;;;;;;20.17;11.68;;;;;;;9.04;100.00;102685.50;5104125;28;20044;-55
2022/11/11 06:09:35;;;;;;;17.08;11.18;;;;;;;9.02;100.00;102689.97;5092029;28;20040;-56
2022/11/11 06:12:05;;;;;;;16.27;11.88;;;;;;;9.03;100.00;102689.06;5104421;28;20624;-57
2022/11/11 06:14:33;;;;;;;17.70;11.57;;;;;;;9.01;100.00;102701.38;5098813;28;20047;-55
2022/11/11 06:17:01;;;;;;;22.30;13.93;;;;;;;8.89;100.00;102702.56;5095382;28;20052;-55
2022/11/11 06:19:29;;;;;;;23.92;14.57;;;;;;;8.92;100.00;102703.34;5106002;28;20051;-55
2022/11/11 06:21:59;;;;;;;23.75;14.50;;;;;;;8.99;100.00;102703.19;5094521;28;20035;-55
2022/11/11 06:24:28;;;;;;;24.13;16.02;;;;;;;8.86;100.00;102698.28;5100295;27;20139;-53
2022/11/11 06:26:56;;;;;;;26.33;15.73;;;;;;;8.93;100.00;102706.81;5102131;28;20047;-55
2022/11/11 06:29:25;;;;;;;23.30;15.73;;;;;;;8.87;100.00;102707.00;5092833;28;20052;-54
2022/11/11 06:31:53;;;;;;;22.70;15.88;;;;;;;8.88;100.00;102714.84;5091996;28;20058;-55
2022/11/11 06:34:21;;;;;;;24.63;15.13;;;;;;;8.86;100.00;102721.91;5109437;28;20054;-55
2022/11/11 06:36:50;;;;;;;21.73;14.70;;;;;;;8.88;100.00;102721.84;5109360;27;20177;-54
2022/11/11 06:39:18;;;;;;;19.95;13.85;;;;;;;8.91;100.00;102727.88;5108193;28;20071;-54
2022/11/11 06:41:46;;;;;;;22.92;15.13;;;;;;;8.89;100.00;102737.56;5110216;28;20055;-54
2022/11/11 06:44:14;;;;;;;23.05;14.23;;;;;;;8.94;100.00;102738.28;5110505;27;20051;-55
2022/11/11 06:46:43;;;;;;;23.45;15.23;;;;;;;8.92;100.00;102744.50;5111733;27;20050;-55
2022/11/11 06:49:11;;;;;;;23.77;16.05;;;;;;;8.82;100.00;102753.50;5109969;28;20081;-55
2022/11/11 06:51:40;;;;;;;25.58;16.63;;;;;;;8.86;100.00;102756.03;5111694;28;20476;-54
2022/11/11 06:54:08;;;;;;;22.08;15.52;;;;;;;8.84;100.00;102757.81;5110145;28;20131;-55
2022/11/11 06:56:36;;;;;;;25.88;15.75;;;;;;;8.79;100.00;102755.31;5110293;28;20047;-55
2022/11/11 06:59:05;;;;;;;20.85;15.02;;;;;;;8.83;100.00;102756.09;5110010;28;20456;-54
2022/11/11 07:01:33;;;;;;;22.38;15.30;;;;;;;8.74;100.00;102761.56;5110476;28;20104;-54
2022/11/11 07:04:05;;;;;;;22.55;14.88;;;;;;;8.70;100.00;102759.94;5111373;28;20063;-55
2022/11/11 07:06:33;;;;;;;23.55;14.90;;;;;;;8.51;100.00;102770.03;5107722;28;20043;-55
2022/11/11 07:09:03;;;;;;;22.17;14.90;;;;;;;8.53;100.00;102771.72;5109200;28;20539;-54
2022/11/11 07:11:32;;;;;;;22.13;14.73;;;;;;;8.67;100.00;102767.88;5109429;28;20052;-55
2022/11/11 07:14:00;;;;;;;23.77;15.10;;;;;;;8.53;100.00;102763.84;5109475;28;20118;-55
2022/11/11 07:16:28;;;;;;;22.27;13.93;;;;;;;8.50;100.00;102766.56;5109049;28;20051;-53
2022/11/11 07:18:56;;;;;;;21.15;13.75;;;;;;;8.53;100.00;102779.59;5109279;28;20051;-55
2022/11/11 07:21:25;;;;;;;23.30;14.35;;;;;;;8.56;100.00;102776.91;5109292;28;20439;-56
2022/11/11 07:23:53;;;;;;;20.65;14.25;;;;;;;8.50;100.00;102784.94;5107777;28;20109;-54
2022/11/11 07:26:22;;;;;;;24.70;15.45;;;;;;;8.48;100.00;102785.88;5109484;28;20043;-53
2022/11/11 07:28:50;;;;;;;21.58;14.43;;;;;;;8.53;100.00;102797.94;5112774;28;20067;-55
2022/11/11 07:31:18;;;;;;;21.90;14.55;;;;;;;8.55;100.00;102796.16;5110155;28;20470;-55
2022/11/11 07:33:46;;;;;;;25.73;14.57;;;;;;;8.55;100.00;102805.78;5108524;28;20108;-55
2022/11/11 07:36:14;;;;;;;22.88;14.48;;;;;;;8.52;100.00;102816.34;5108631;28;20098;-54
2022/11/11 07:38:44;;;;;;;24.83;15.13;;;;;;;8.50;100.00;102813.78;5109354;28;20090;-54
2022/11/11 07:41:12;;;;;;;22.83;14.52;;;;;;;8.42;100.00;102815.69;5112393;28;20047;-55
2022/11/11 07:43:40;;;;;;;22.50;14.82;;;;;;;8.46;100.00;102812.13;5112427;28;20482;-54
2022/11/11 07:46:08;;;;;;;21.75;14.45;;;;;;;8.46;100.00;102820.00;5112446;28;20119;-53
2022/11/11 07:48:36;;;;;;;25.05;14.18;;;;;;;8.46;100.00;102826.09;5107673;28;20113;-54
2022/11/11 07:51:04;;;;;;;23.70;14.93;;;;;;;8.54;100.00;102831.16;5108283;28;20167;-54
2022/11/11 07:53:32;;;;;;;20.45;14.10;;;;;;;8.52;100.00;102835.59;5108433;28;20514;-55
2022/11/11 07:56:02;;;;;;;22.88;14.15;;;;;;;8.51;100.00;102838.22;5110345;28;20058;-54
2022/11/11 07:58:30;;;;;;;20.38;13.25;;;;;;;8.52;100.00;102830.34;5112950;28;20048;-54
2022/11/11 08:00:59;;;;;;;20.80;14.02;;;;;;;8.46;100.00;102838.34;5109632;28;20417;-52
2022/11/11 08:03:48;;;;;;;20.48;12.52;;;;;;;8.52;100.00;102838.22;5108461;28;20455;-53
2022/11/11 08:06:17;;;;;;;18.73;12.10;;;;;;;8.52;100.00;102830.34;5110520;28;20085;-53
2022/11/11 08:08:45;;;;;;;18.02;12.43;;;;;;;8.47;100.00;102832.22;5107988;28;20517;-54
2022/11/11 08:11:16;;;;;;;20.00;11.77;;;;;;;8.44;100.00;102837.50;5106436;28;20091;-54
2022/11/11 08:13:43;;;;;;;18.85;12.07;;;;;;;8.51;100.00;102843.47;5107479;28;20054;-55
2022/11/11 08:16:13;;;;;;;19.52;12.02;;;;;;;8.46;100.00;102838.34;5107178;28;20047;-55
2022/11/11 08:18:42;;;;;;;16.85;10.07;;;;;;;8.50;100.00;102842.63;5108211;28;20059;-55
2022/11/11 08:21:10;;;;;;;17.90;10.38;;;;;;;8.52;100.00;102846.09;5108826;28;20051;-54
2022/11/11 08:23:38;;;;;;;17.70;10.70;;;;;;;8.51;100.00;102841.72;5108484;28;20490;-55
2022/11/11 08:26:28;;;;;;;17.75;10.18;;;;;;;8.62;100.00;102847.56;5107952;28;20079;-55
2022/11/11 08:28:57;;;;;;;16.63;10.10;;;;;;;8.59;100.00;102844.19;5107528;28;20067;-55
2022/11/11 08:31:26;;;;;;;15.68;9.48;;;;;;;8.59;100.00;102839.78;5108125;28;20119;-56
2022/11/11 08:33:54;;;;;;;15.75;9.60;;;;;;;8.60;100.00;102838.88;5109742;28;20096;-56
2022/11/11 08:36:23;;;;;;;14.98;9.07;;;;;;;8.63;100.00;102838.81;5108155;28;20051;-56
2022/11/11 08:38:53;;;;;;;15.43;9.77;;;;;;;8.71;100.00;102832.50;5109742;28;20475;-55
2022/11/11 08:41:22;;;;;;;14.00;7.95;;;;;;;8.70;100.00;102843.88;5111618;28;20070;-56
2022/11/11 08:43:55;;;;;;;15.82;9.40;;;;;;;8.72;100.00;102845.56;5112292;28;20048;-56
2022/11/11 08:46:24;;;;;;;15.80;8.73;;;;;;;8.83;100.00;102841.81;5112017;28;20567;-56
2022/11/11 08:48:53;;;;;;;15.02;9.02;;;;;;;8.84;100.00;102839.16;5111532;28;20595;-56
2022/11/11 08:51:21;;;;;;;15.55;9.10;;;;;;;8.79;100.00;102846.28;5112055;28;20731;-56
2022/11/11 08:53:49;;;;;;;15.13;8.48;;;;;;;8.69;100.00;102839.56;5111478;27;20522;-53
2022/11/11 08:56:17;;;;;;;15.63;9.35;;;;;;;8.63;100.00;102841.44;5112989;27;20051;-56
2022/11/11 08:58:45;;;;;;;13.75;8.65;;;;;;;8.70;100.00;102842.13;5113520;28;20046;-56
2022/11/11 09:01:15;;;;;;;15.82;8.63;;;;;;;8.73;100.00;102846.44;5111826;28;20044;-56
2022/11/11 09:03:44;;;;;;;15.73;9.45;;;;;;;8.76;100.00;102846.34;5110645;28;20096;-54
2022/11/11 09:06:13;;;;;;;14.45;8.13;;;;;;;8.88;100.00;102843.41;5111285;28;20126;-56
2022/11/11 09:08:42;;;;;;;13.98;8.23;;;;;;;9.00;100.00;102841.34;5111254;28;20517;-55
2022/11/11 09:11:11;;;;;;;16.23;8.23;;;;;;;9.01;100.00;102848.34;5110501;28;20382;-56
2022/11/11 09:13:40;;;;;;;13.60;7.93;;;;;;;9.09;100.00;102856.88;5112128;28;20427;-55
2022/11/11 09:16:09;;;;;;;12.68;7.65;;;;;;;9.13;100.00;102858.50;5111181;28;20057;-56
2022/11/11 09:18:38;;;;;;;11.70;7.35;;;;;;;9.27;100.00;102853.75;5110854;28;20498;-55
2022/11/11 09:21:07;;;;;;;14.43;7.30;;;;;;;9.24;100.00;102859.09;5111684;28;20043;-56
2022/11/11 09:23:35;;;;;;;13.90;7.32;;;;;;;9.24;100.00;102859.09;5110986;28;20040;-56
2022/11/11 09:26:06;;;;;;;11.55;6.65;;;;;;;9.39;100.00;102864.81;5111180;28;20043;-56
2022/11/11 09:28:35;;;;;;;14.52;7.28;;;;;;;9.44;100.00;102862.91;5109987;28;20410;-57
2022/11/11 09:31:03;;;;;;;14.15;7.53;;;;;;;9.39;100.00;102870.06;5114619;27;20039;-57
2022/11/11 09:33:53;;;;;;;11.10;6.53;;;;;;;9.51;100.00;102866.25;5114719;28;20062;-56
2022/11/11 09:36:21;;;;;;;11.98;6.70;;;;;;;9.55;100.00;102871.34;5111492;27;20056;-56
2022/11/11 09:38:49;;;;;;;12.25;6.47;;;;;;;9.61;100.00;102865.06;5110826;28;20094;-56
2022/11/11 09:41:24;;;;;;;12.02;6.30;;;;;;;9.69;100.00;102863.06;5111556;27;20043;-56
2022/11/11 09:43:55;;;;;;;11.25;6.53;;;;;;;9.68;100.00;102860.47;5111626;28;20125;-57
2022/11/11 09:46:35;;;;;;;11.25;6.57;;;;;;;9.88;100.00;102862.53;5112791;28;20108;-57
2022/11/11 09:49:34;;;;;;;11.95;6.53;;;;;;;9.96;100.00;102865.78;5110541;28;20057;-50
2022/11/11 09:52:10;;;;;;;11.93;6.38;;;;;;;10.10;100.00;102863.59;5109295;28;20062;-51
2022/11/11 09:54:43;;;;;;;13.55;5.95;;;;;;;10.12;100.00;102864.41;5114351;28;20559;-52
2022/11/11 09:57:18;;;;;;;12.05;6.05;;;;;;;10.37;100.00;102861.03;5112651;28;20079;-53
2022/11/11 09:59:51;;;;;;;12.40;5.97;;;;;;;10.55;100.00;102863.97;5113651;28;20070;-51
2022/11/11 10:02:29;;;;;;;9.93;5.57;;;;;;;10.63;100.00;102870.72;5113354;28;20047;-51
2022/11/11 10:05:06;;;;;;;12.40;5.63;;;;;;;10.83;100.00;102866.53;5110235;28;20047;-52
2022/11/11 10:07:40;;;;;;;12.13;5.43;;;;;;;10.78;100.00;102877.25;5112089;28;20507;-52
2022/11/11 10:10:23;;;;;;;11.23;5.63;;;;;;;10.83;100.00;102883.19;5113988;28;20056;-54
2022/11/11 10:12:56;;;;;;;9.30;5.18;;;;;;;11.01;100.00;102880.84;5114058;28;20048;-52
2022/11/11 10:15:28;;;;;;;11.65;5.30;;;;;;;11.36;100.00;102891.03;5112211;28;20043;-54
2022/11/11 10:18:05;;;;;;;;;;;;;;;11.35;100.00;102891.97;5103293;28;20414;-54
2022/11/11 10:20:41;;;;;;;8.90;5.25;;;;;;;11.41;100.00;102892.63;5112844;28;20374;-50
2022/11/11 10:23:14;;;;;;;9.45;5.07;;;;;;;11.55;100.00;102894.75;5113831;28;20055;-53
2022/11/11 10:25:50;;;;;;;9.82;5.20;;;;;;;11.65;100.00;102887.34;5113704;27;20378;-53
2022/11/11 10:28:20;;;;;;;9.23;5.20;;;;;;;11.56;100.00;102896.47;5113665;28;20055;-53
2022/11/11 10:30:51;;;;;;;10.20;4.95;;;;;;;11.69;100.00;102888.94;5109962;28;20116;-54
2022/11/11 10:33:24;;;;;;;10.52;5.78;;;;;;;11.79;100.00;102892.09;5108412;28;20059;-54
2022/11/11 10:35:56;;;;;;;10.20;5.30;;;;;;;11.78;100.00;102890.38;5113173;28;20043;-54
2022/11/11 10:38:33;;;;;;;9.87;5.00;;;;;;;11.99;100.00;102892.22;5113454;28;20060;-54
2022/11/11 10:41:12;;;;;;;11.57;5.25;;;;;;;12.29;100.00;102880.53;5113795;28;20048;-53
2022/11/11 10:43:40;;;;;;;9.30;4.82;;;;;;;12.41;100.00;102884.47;5113371;28;20048;-54
2022/11/11 10:46:16;;;;;;;12.30;5.28;;;;;;;12.66;100.00;102887.78;5113178;28;20035;-53
2022/11/11 10:48:53;;;;;;;10.27;4.65;;;;;;;12.81;100.00;102883.66;5097807;28;20055;-55
2022/11/11 10:51:27;;;;;;;7.93;4.70;;;;;;;12.63;100.00;102885.28;5095990;28;20066;-52
2022/11/11 10:54:04;;;;;;;11.43;5.25;;;;;;;12.80;100.00;102889.00;5094389;28;20051;-54
2022/11/11 10:56:37;;;;;;;8.30;4.78;;;;;;;12.92;100.00;102888.47;5105087;28;20105;-55
2022/11/11 10:59:15;;;;;;;10.55;4.95;;;;;;;13.10;100.00;102885.97;5088241;28;20051;-53
2022/11/11 11:01:52;;;;;;;15.52;5.57;;;;;;;12.99;100.00;102879.41;5090450;28;20075;-56
2022/11/11 11:04:29;;;;;;;19.92;6.70;;;;;;;12.72;100.00;102889.34;5092844;28;20491;-54
2022/11/11 11:07:02;;;;;;;11.60;5.35;;;;;;;12.60;100.00;102890.72;5088447;28;20105;-58
2022/11/11 11:09:39;;;;;;;9.60;4.78;;;;;;;12.53;100.00;102889.25;5087495;28;20062;-57
2022/11/11 11:12:13;;;;;;;9.13;4.53;;;;;;;12.53;100.00;102889.25;5090510;28;20090;-58
2022/11/11 11:14:44;;;;;;;10.38;4.63;;;;;;;12.75;100.00;102876.00;5092912;28;20105;-58
2022/11/11 11:17:20;;;;;;;12.20;4.65;;;;;;;12.62;100.00;102878.28;5088335;28;20052;-58
2022/11/11 11:20:08;;;;;;;8.95;4.18;;;;;;;12.80;100.00;102886.38;5089404;28;20495;-54
2022/11/11 11:22:48;;;;;;;7.65;4.00;;;;;;;12.87;100.00;102886.97;5092422;28;20097;-54
2022/11/11 11:25:18;;;;;;;7.88;3.90;;;;;;;12.95;100.00;102879.56;5092366;28;20051;-53
2022/11/11 11:27:47;;;;;;;7.93;3.88;;;;;;;12.79;100.00;102884.69;5088196;28;20113;-55
2022/11/11 11:30:19;;;;;;;9.02;4.13;;;;;;;12.77;100.00;102886.50;5089167;28;20139;-54
2022/11/11 11:32:57;;;;;;;8.07;3.88;;;;;;;12.67;100.00;102878.13;5092354;28;20483;-54
2022/11/11 11:35:35;;;;;;;9.82;4.25;;;;;;;12.44;100.00;102879.06;5091754;28;20051;-54
2022/11/11 11:38:05;;;;;;;10.55;4.05;;;;;;;12.49;100.00;102891.16;5091412;28;20051;-52
2022/11/11 11:40:48;;;;;;;11.40;4.07;;;;;;;12.62;100.00;102882.72;5091682;28;20079;-54
2022/11/11 11:43:32;;;;;;;8.85;3.83;;;;;;;12.56;100.00;102880.34;5091564;28;20032;-53
2022/11/11 11:46:01;;;;;;;9.40;4.45;;;;;;;12.64;100.00;102878.25;5091531;28;20044;-53
2022/11/11 11:49:00;;;;;;;8.45;3.45;;;;;;;12.83;100.00;102873.06;5091825;28;20352;-54
2022/11/11 11:51:35;;;;;;;10.57;4.45;;;;;;;12.74;100.00;102871.66;5091997;28;20051;-54
2022/11/11 11:54:33;;;;;;;8.45;4.00;;;;;;;12.68;100.00;102880.69;5092246;28;20047;-52
2022/11/11 11:57:04;;;;;;;7.53;3.55;;;;;;;12.85;100.00;102877.31;5089643;28;20109;-54
2022/11/11 11:59:39;;;;;;;9.68;3.72;;;;;;;12.74;100.00;102878.72;5090728;28;20047;-55
2022/11/11 12:02:27;;;;;;;8.25;4.40;;;;;;;12.68;100.00;102882.47;5087273;28;20105;-53
2022/11/11 12:05:10;;;;;;;8.40;4.03;;;;;;;12.64;100.00;102879.09;5087661;28;20052;-56
2022/11/11 12:07:53;;;;;;;7.82;3.55;;;;;;;12.81;100.00;102873.09;5089386;28;20052;-52
2022/11/11 12:10:32;;;;;;;8.05;3.55;;;;;;;12.73;100.00;102874.34;5092017;28;20040;-54
2022/11/11 12:13:09;;;;;;;6.60;3.47;;;;;;;12.74;100.00;102876.94;5096049;28;20359;-56
2022/11/11 12:15:41;;;;;;;7.88;3.92;;;;;;;12.70;100.00;102885.06;5095823;28;20123;-53
2022/11/11 12:18:44;;;;;;;7.47;3.47;;;;;;;12.48;100.00;102875.38;5095712;28;20040;-54
2022/11/11 12:21:14;;;;;;;8.52;3.95;;;;;;;12.44;100.00;102873.78;5092423;28;20059;-52
2022/11/11 12:23:56;;;;;;;7.05;3.58;;;;;;;12.42;100.00;102875.63;5094271;28;20052;-54
2022/11/11 12:26:35;;;;;;;8.63;4.03;;;;;;;12.38;100.00;102874.03;5094575;28;20494;-54
2022/11/11 12:29:21;;;;;;;7.43;3.67;;;;;;;12.59;100.00;102878.44;5092471;28;20077;-54
2022/11/11 12:32:04;;;;;;;10.90;3.60;;;;;;;12.44;100.00;102863.22;5094644;28;20078;-54
2022/11/11 12:35:03;;;;;;;10.77;4.13;;;;;;;12.49;100.00;102858.63;5095484;28;20048;-53
2022/11/11 12:37:41;;;;;;;8.43;3.72;;;;;;;12.39;100.00;102859.91;5095204;28;20056;-54
2022/11/11 12:40:22;;;;;;;6.93;3.30;;;;;;;12.49;100.00;102850.72;5095312;28;20052;-53